Time;durP1;ratioP1;P1;durP2;ratioP2;P2;SDS_P1;SDS_P2;PMS_P1;PMS_P2;Temp;Humidity;BMP_temperature;BMP_pressure;BME280_temperature;BME280_humidity;BME280_pressure;Samples;Min_cycle;Max_cycle;Signal;HPM_P1;HPM_P2
2022/10/29 00:00:54;;;;;;;8.50;7.10;;;17.00;99.90;;;;;;5034328;28;20461;-87
2022/10/29 00:03:25;;;;;;;8.50;7.30;;;16.90;99.90;;;;;;5038690;28;20464;-86
2022/10/29 00:05:59;;;;;;;7.70;7.03;;;16.90;99.90;;;;;;5036414;28;20440;-86
2022/10/29 00:08:29;;;;;;;9.33;6.70;;;16.90;99.90;;;;;;5038747;28;20440;-86
2022/10/29 00:11:06;;;;;;;8.67;7.80;;;17.00;99.90;;;;;;5036328;28;20429;-86
2022/10/29 00:13:35;;;;;;;7.80;7.00;;;17.00;99.90;;;;;;5035713;28;20460;-87
2022/10/29 00:16:06;;;;;;;8.70;7.90;;;17.00;99.90;;;;;;5033665;28;20580;-86
2022/10/29 00:18:35;;;;;;;8.73;7.87;;;16.80;99.90;;;;;;5038718;28;20506;-86
2022/10/29 00:21:06;;;;;;;7.93;7.27;;;16.60;99.90;;;;;;5035861;28;20461;-86
2022/10/29 00:23:34;;;;;;;8.23;7.57;;;16.50;1.00;;;;;;5036805;28;20499;-87
2022/10/29 00:26:03;;;;;;;9.50;7.77;;;16.60;1.00;;;;;;5035977;28;20472;-87
2022/10/29 00:28:32;;;;;;;7.93;7.13;;;16.60;1.00;;;;;;5034982;28;20789;-87
2022/10/29 00:31:04;;;;;;;8.10;7.30;;;16.40;1.00;;;;;;5034189;28;20452;-88
2022/10/29 00:33:33;;;;;;;8.03;7.03;;;16.40;1.00;;;;;;5036450;28;20468;-87
2022/10/29 00:36:05;;;;;;;7.37;6.87;;;16.40;1.00;;;;;;5034743;28;20490;-87
2022/10/29 00:38:35;;;;;;;7.80;7.10;;;16.40;1.00;;;;;;5035294;28;20450;-87
2022/10/29 00:41:05;;;;;;;12.47;7.53;;;16.40;99.90;;;;;;5039270;28;20448;-89
2022/10/29 00:43:34;;;;;;;8.20;7.53;;;16.30;99.90;;;;;;5037233;28;20460;-88
2022/10/29 00:46:05;;;;;;;8.50;7.50;;;16.20;99.90;;;;;;5034586;28;20485;-88
2022/10/29 00:48:37;;;;;;;9.33;8.33;;;16.10;99.90;;;;;;5035122;28;20447;-87
2022/10/29 00:51:09;;;;;;;8.03;7.43;;;16.10;99.90;;;;;;5032040;28;20463;-87
2022/10/29 00:53:40;;;;;;;10.80;8.53;;;16.10;99.90;;;;;;5034287;28;20517;-87
2022/10/29 00:56:09;;;;;;;9.20;8.37;;;16.20;1.10;;;;;;5035209;28;20590;-86
2022/10/29 00:58:37;;;;;;;12.80;8.03;;;16.30;1.00;;;;;;5029165;28;20542;-85
2022/10/29 01:01:06;;;;;;;8.73;7.53;;;16.30;1.00;;;;;;5034541;28;20470;-86
2022/10/29 01:03:34;;;;;;;7.80;7.00;;;16.20;99.90;;;;;;5033779;28;20459;-86
2022/10/29 01:06:04;;;;;;;9.03;8.00;;;16.20;99.90;;;;;;5030678;28;20949;-86
2022/10/29 01:08:33;;;;;;;8.13;7.30;;;16.10;99.90;;;;;;5032309;28;20461;-87
2022/10/29 01:11:11;;;;;;;7.83;7.13;;;16.20;99.90;;;;;;5031030;28;20453;-87
2022/10/29 01:13:53;;;;;;;8.83;7.30;;;16.20;99.90;;;;;;5036747;28;20435;-89
2022/10/29 01:16:33;;;;;;;8.93;8.13;;;16.20;99.90;;;;;;5036220;28;20468;-89
2022/10/29 01:19:11;;;;;;;8.63;7.77;;;16.20;99.90;;;;;;5038158;28;20467;-89
2022/10/29 01:21:45;;;;;;;11.70;7.07;;;16.10;99.90;;;;;;5038523;28;20650;-88
2022/10/29 01:24:55;;;;;;;9.07;8.17;;;16.10;1.00;;;;;;5039864;28;20450;-88
2022/10/29 01:27:57;;;;;;;9.67;8.00;;;16.20;1.00;;;;;;5035776;28;20489;-86
2022/10/29 01:30:58;;;;;;;8.87;8.03;;;16.40;99.90;;;;;;5036239;28;20472;-87
2022/10/29 01:33:34;;;;;;;7.70;6.97;;;16.00;99.90;;;;;;5034395;28;20674;-86
2022/10/29 01:36:07;;;;;;;8.13;7.37;;;16.10;1.00;;;;;;5033456;28;20559;-87
2022/10/29 01:38:41;;;;;;;7.97;7.47;;;16.10;99.90;;;;;;5034819;28;20950;-86
2022/10/29 01:41:14;;;;;;;8.07;7.10;;;16.10;1.00;;;;;;5032214;28;20460;-88
2022/10/29 01:43:47;;;;;;;8.13;7.60;;;16.10;1.00;;;;;;5039476;28;20494;-88
2022/10/29 01:46:22;;;;;;;8.93;7.80;;;16.00;1.00;;;;;;5038820;28;20461;-87
2022/10/29 01:48:55;;;;;;;9.57;8.30;;;16.00;1.00;;;;;;5048795;28;20470;-86
2022/10/29 01:51:28;;;;;;;10.67;7.77;;;16.00;1.00;;;;;;5042135;28;20447;-88
2022/10/29 01:53:58;;;;;;;8.50;7.87;;;15.90;1.00;;;;;;5041494;28;20439;-88
2022/10/29 01:56:26;;;;;;;13.03;8.30;;;16.00;1.00;;;;;;5043944;28;20476;-87
2022/10/29 01:58:57;;;;;;;9.20;7.80;;;16.10;1.00;;;;;;5043386;28;20452;-87
2022/10/29 02:01:43;;;;;;;9.13;7.20;;;16.00;1.00;;;;;;5036727;28;20482;-86
2022/10/29 02:04:28;;;;;;;8.07;7.43;;;15.80;23.00;;;;;;5034958;28;20495;-85
2022/10/29 02:07:09;;;;;;;9.17;8.30;;;15.80;99.90;;;;;;5038959;28;20492;-86
2022/10/29 02:09:47;;;;;;;9.90;8.63;;;15.80;99.90;;;;;;5036020;28;20463;-87
2022/10/29 02:12:21;;;;;;;7.97;7.40;;;15.90;99.90;;;;;;5036770;28;20459;-87
2022/10/29 02:14:52;;;;;;;8.00;7.20;;;15.80;99.90;;;;;;5041137;28;20607;-86
2022/10/29 02:17:22;;;;;;;8.57;7.83;;;15.90;1.00;;;;;;5037807;28;20479;-86
2022/10/29 02:19:50;;;;;;;9.33;7.40;;;15.90;99.90;;;;;;5034313;28;20503;-86
2022/10/29 02:22:19;;;;;;;9.03;8.30;;;15.80;99.90;;;;;;5035939;28;20610;-87
2022/10/29 02:24:47;;;;;;;7.70;7.27;;;15.90;99.90;;;;;;5038066;28;20451;-87
2022/10/29 02:27:15;;;;;;;8.93;8.13;;;16.00;8.00;;;;;;5036730;28;21347;-87
2022/10/29 02:29:43;;;;;;;10.20;8.40;;;16.10;9.90;;;;;;5039528;28;20471;-86
2022/10/29 02:32:11;;;;;;;8.87;8.07;;;16.10;99.90;;;;;;5037572;28;20441;-87
2022/10/29 02:34:40;;;;;;;9.77;8.60;;;16.00;99.90;;;;;;5039223;28;20677;-86
2022/10/29 02:37:09;;;;;;;10.63;7.70;;;15.90;1.00;;;;;;5040823;28;20509;-86
2022/10/29 02:39:37;;;;;;;11.90;8.80;;;15.90;1.00;;;;;;5036855;28;21157;-85
2022/10/29 02:42:05;;;;;;;9.17;7.67;;;16.00;1.00;;;;;;5038112;28;21070;-87
2022/10/29 02:44:33;;;;;;;8.37;7.57;;;15.90;1.00;;;;;;5040274;28;20431;-87
2022/10/29 02:47:01;;;;;;;9.30;8.37;;;15.90;1.00;;;;;;5040015;28;20733;-88
2022/10/29 02:49:30;;;;;;;9.30;8.30;;;16.00;99.90;;;;;;5040366;28;20494;-88
2022/10/29 02:51:59;;;;;;;8.87;8.20;;;16.10;99.90;;;;;;5041708;28;20432;-88
2022/10/29 02:54:28;;;;;;;8.17;7.33;;;16.00;99.90;;;;;;5038505;28;20518;-88
2022/10/29 02:56:56;;;;;;;9.97;8.00;;;16.00;1.00;;;;;;5041193;28;20463;-87
2022/10/29 02:59:24;;;;;;;9.10;8.40;;;16.00;1.00;;;;;;5038730;28;21001;-87
2022/10/29 03:01:52;;;;;;;8.90;8.03;;;16.10;1.00;;;;;;5038796;28;20436;-87
2022/10/29 03:04:21;;;;;;;9.27;7.80;;;16.00;1.00;;;;;;5041994;28;20464;-87
2022/10/29 03:06:49;;;;;;;9.47;8.57;;;15.90;1.00;;;;;;5035350;28;21217;-89
2022/10/29 03:09:19;;;;;;;9.70;8.87;;;15.90;99.90;;;;;;5035682;28;20460;-89
2022/10/29 03:11:47;;;;;;;10.03;8.50;;;16.00;99.90;;;;;;5032502;28;20460;-87
2022/10/29 03:14:15;;;;;;;9.80;7.70;;;16.00;13.70;;;;;;5033363;28;20528;-88
2022/10/29 03:16:43;;;;;;;11.07;8.23;;;16.00;1.00;;;;;;5035939;28;20484;-88
2022/10/29 03:19:12;;;;;;;8.60;7.93;;;16.10;1.00;;;;;;5034616;28;20480;-88
2022/10/29 03:21:40;;;;;;;10.20;8.57;;;16.00;1.00;;;;;;5040432;28;20475;-88
2022/10/29 03:24:08;;;;;;;9.17;8.40;;;15.90;99.90;;;;;;5034744;28;20455;-88
2022/10/29 03:26:38;;;;;;;10.87;8.73;;;15.90;99.90;;;;;;5037571;28;20476;-88
2022/10/29 03:29:06;;;;;;;9.07;8.47;;;15.80;99.90;;;;;;5047940;28;20474;-88
2022/10/29 03:31:34;;;;;;;10.67;8.37;;;15.80;70.10;;;;;;5036642;28;20477;-87
2022/10/29 03:34:03;;;;;;;8.80;8.10;;;15.80;1.00;;;;;;5035023;28;20471;-87
2022/10/29 03:36:31;;;;;;;9.47;8.57;;;15.80;99.90;;;;;;5033619;28;20480;-86
2022/10/29 03:38:59;;;;;;;9.97;9.07;;;15.90;1.00;;;;;;5032189;28;20482;-88
2022/10/29 03:41:28;;;;;;;10.13;8.73;;;15.90;1.00;;;;;;5035572;28;20573;-88
2022/10/29 03:43:57;;;;;;;9.30;8.57;;;15.90;99.90;;;;;;5034152;28;20464;-86
2022/10/29 03:46:26;;;;;;;10.20;9.50;;;15.90;99.90;;;;;;5033947;28;20824;-86
2022/10/29 03:48:54;;;;;;;9.07;8.27;;;15.80;1.00;;;;;;5033165;28;20446;-86
2022/10/29 03:51:22;;;;;;;9.03;8.33;;;15.80;99.90;;;;;;5033865;28;20463;-86
2022/10/29 03:53:50;;;;;;;9.37;8.60;;;15.80;1.00;;;;;;5033484;28;20773;-85
2022/10/29 03:56:19;;;;;;;10.40;9.40;;;15.70;99.90;;;;;;5036923;28;20458;-87
2022/10/29 03:58:47;;;;;;;9.47;8.87;;;15.80;99.90;;;;;;5032048;28;20472;-86
2022/10/29 04:01:16;;;;;;;9.83;8.87;;;15.80;99.90;;;;;;5031309;28;20462;-85
2022/10/29 04:03:44;;;;;;;10.40;8.63;;;15.70;99.90;;;;;;5037015;28;20455;-87
2022/10/29 04:06:15;;;;;;;9.63;8.73;;;15.80;99.90;;;;;;5035908;28;20459;-88
2022/10/29 04:08:43;;;;;;;9.10;8.47;;;15.90;1.00;;;;;;5037296;28;20450;-87
2022/10/29 04:11:12;;;;;;;10.57;8.80;;;16.00;1.00;;;;;;5038726;28;20495;-87
2022/10/29 04:13:41;;;;;;;12.93;9.27;;;15.90;1.00;;;;;;5039969;28;20448;-88
2022/10/29 04:16:09;;;;;;;9.63;8.83;;;15.80;1.00;;;;;;5037815;28;20526;-87
2022/10/29 04:18:39;;;;;;;12.13;8.40;;;15.80;92.70;;;;;;5040486;28;20511;-87
2022/10/29 04:21:07;;;;;;;9.17;8.20;;;15.70;1.00;;;;;;5037062;28;20448;-87
2022/10/29 04:23:55;;;;;;;9.43;8.53;;;15.80;46.80;;;;;;5037698;28;20529;-89
2022/10/29 04:26:43;;;;;;;8.57;7.83;;;15.70;99.90;;;;;;5037270;28;20477;-87
2022/10/29 04:29:32;;;;;;;9.10;8.20;;;15.80;99.90;;;;;;5031205;28;21201;-89
2022/10/29 04:32:00;;;;;;;11.67;8.43;;;15.70;1.00;;;;;;5032328;28;20484;-89
2022/10/29 04:34:30;;;;;;;11.73;8.20;;;15.90;99.90;;;;;;5033540;28;20455;-88
2022/10/29 04:36:58;;;;;;;8.83;8.03;;;16.00;40.90;;;;;;5029201;28;20481;-86
2022/10/29 04:39:27;;;;;;;7.93;7.20;;;16.10;99.90;;;;;;5030466;28;20508;-86
2022/10/29 04:41:55;;;;;;;9.40;6.97;;;16.00;99.90;;;;;;5030779;28;20456;-86
2022/10/29 04:44:23;;;;;;;7.57;7.10;;;15.90;1.00;;;;;;5031817;28;20463;-85
2022/10/29 04:46:52;;;;;;;8.87;8.10;;;15.80;1.00;;;;;;5027383;28;20479;-87
2022/10/29 04:49:20;;;;;;;8.73;7.67;;;15.70;1.00;;;;;;5027958;28;20459;-86
2022/10/29 04:51:49;;;;;;;7.70;7.00;;;15.70;1.00;;;;;;5029000;28;20474;-86
2022/10/29 04:54:18;;;;;;;8.30;7.50;;;15.70;1.00;;;;;;5027387;28;20462;-87
2022/10/29 04:56:46;;;;;;;8.67;7.77;;;15.60;1.00;;;;;;5028148;28;20806;-88
2022/10/29 04:59:14;;;;;;;8.90;7.30;;;15.50;1.00;;;;;;5033137;28;20471;-87
2022/10/29 05:01:43;;;;;;;7.63;6.97;;;15.70;99.90;;;;;;5035003;28;21139;-86
2022/10/29 05:04:11;;;;;;;7.70;7.10;;;16.00;1.00;;;;;;5033906;28;20799;-87
2022/10/29 05:06:39;;;;;;;7.40;6.80;;;16.10;99.90;;;;;;5033008;28;20502;-87
2022/10/29 05:09:09;;;;;;;7.70;7.00;;;16.00;1.00;;;;;;5035028;28;20435;-86
2022/10/29 05:11:37;;;;;;;8.73;7.97;;;15.80;99.90;;;;;;5053191;28;20452;-87
2022/10/29 05:14:06;;;;;;;7.97;7.27;;;15.60;99.90;;;;;;5038266;28;20449;-85
2022/10/29 05:16:34;;;;;;;8.67;7.97;;;15.50;1.00;;;;;;5034337;28;20547;-87
2022/10/29 05:19:03;;;;;;;12.13;8.37;;;15.40;1.00;;;;;;5033298;28;20525;-85
2022/10/29 05:21:31;;;;;;;8.30;7.60;;;15.30;39.00;;;;;;5034476;28;20452;-87
2022/10/29 05:24:00;;;;;;;8.40;7.60;;;15.30;99.90;;;;;;5032261;28;20490;-87
2022/10/29 05:26:32;;;;;;;9.50;7.83;;;15.30;99.90;;;;;;5033130;28;20527;-82
2022/10/29 05:29:01;;;;;;;7.97;7.13;;;15.20;99.90;;;;;;5038040;28;20489;-86
2022/10/29 05:31:29;;;;;;;7.77;7.07;;;15.30;1.00;;;;;;5034205;28;20649;-86
2022/10/29 05:33:58;;;;;;;9.00;8.20;;;15.30;1.00;;;;;;5032018;28;20455;-86
2022/10/29 05:36:26;;;;;;;7.70;6.97;;;15.20;99.90;;;;;;5031730;28;20520;-87
2022/10/29 05:38:54;;;;;;;8.27;7.57;;;15.20;99.90;;;;;;5032543;28;20456;-88
2022/10/29 05:41:22;;;;;;;8.63;7.83;;;15.30;25.60;;;;;;5029499;28;20503;-87
2022/10/29 05:43:52;;;;;;;9.03;8.17;;;15.30;1.00;;;;;;5035432;28;20489;-88
2022/10/29 05:46:20;;;;;;;8.40;7.70;;;15.20;63.00;;;;;;5034763;28;20495;-88
2022/10/29 05:48:48;;;;;;;8.77;7.83;;;15.20;1.00;;;;;;5029980;28;20456;-88
2022/10/29 05:51:17;;;;;;;9.30;8.00;;;15.20;51.90;;;;;;5031975;28;20533;-87
2022/10/29 05:53:45;;;;;;;8.43;7.67;;;15.20;90.90;;;;;;5035033;28;20457;-87
2022/10/29 05:56:13;;;;;;;8.47;7.60;;;15.10;99.90;;;;;;5034247;28;20456;-86
2022/10/29 05:58:42;;;;;;;10.10;8.40;;;15.00;99.90;;;;;;5032419;28;20468;-87
2022/10/29 06:01:12;;;;;;;8.53;7.87;;;15.10;99.90;;;;;;5025332;28;20492;-89
2022/10/29 06:03:40;;;;;;;7.40;6.90;;;15.10;80.40;;;;;;5026204;28;20464;-87
2022/10/29 06:06:09;;;;;;;8.17;7.63;;;15.20;52.20;;;;;;5025251;28;20454;-86
2022/10/29 06:08:37;;;;;;;11.13;8.07;;;15.10;99.90;;;;;;5027389;28;20469;-90
2022/10/29 06:11:06;;;;;;;8.50;7.83;;;15.00;99.90;;;;;;5028812;28;20447;-88
2022/10/29 06:13:34;;;;;;;7.63;7.10;;;15.00;99.90;;;;;;5026846;28;20459;-86
2022/10/29 06:16:03;;;;;;;11.03;8.50;;;15.00;99.90;;;;;;5032825;28;20525;-86
2022/10/29 06:18:34;;;;;;;8.80;7.63;;;15.00;99.90;;;;;;5032832;28;20464;-87
2022/10/29 06:21:02;;;;;;;8.70;7.90;;;15.00;1.00;;;;;;5029234;28;20483;-89
2022/10/29 06:23:30;;;;;;;9.03;8.20;;;15.00;99.90;;;;;;5029217;28;20455;-88
2022/10/29 06:25:59;;;;;;;9.33;8.33;;;14.90;99.90;;;;;;5028950;28;20509;-86
2022/10/29 06:28:28;;;;;;;12.77;9.70;;;14.90;1.00;;;;;;5013427;28;21012;-86
2022/10/29 06:31:02;;;;;;;15.00;8.63;;;15.00;1.00;;;;;;5018150;28;20790;-87
2022/10/29 06:33:30;;;;;;;11.97;9.53;;;14.90;99.90;;;;;;5015883;28;21071;-86
2022/10/29 06:36:00;;;;;;;14.83;8.93;;;14.90;1.00;;;;;;5017373;28;20459;-85
2022/10/29 06:38:28;;;;;;;10.82;8.35;;;15.00;1.00;;;;;;5020095;28;20462;-85
2022/10/29 06:40:56;;;;;;;9.17;8.30;;;14.90;1.00;;;;;;5018967;28;20257;-82
2022/10/29 06:43:24;;;;;;;13.67;9.83;;;14.80;99.90;;;;;;5014064;28;20471;-83
2022/10/29 06:45:53;;;;;;;10.03;9.00;;;14.90;99.90;;;;;;5022494;28;20465;-83
2022/10/29 06:48:21;;;;;;;9.73;8.93;;;14.90;1.00;;;;;;5010641;28;20991;-82
2022/10/29 06:50:50;;;;;;;9.53;8.77;;;14.90;1.00;;;;;;5012364;28;20463;-83
2022/10/29 06:53:20;;;;;;;10.10;9.23;;;15.00;27.60;;;;;;5013743;28;20472;-83
2022/10/29 06:55:48;;;;;;;11.63;8.60;;;15.10;79.40;;;;;;5013054;28;20969;-83
2022/10/29 06:58:19;;;;;;;8.83;8.10;;;15.30;1.00;;;;;;5015234;28;20848;-83
2022/10/29 07:00:48;;;;;;;9.73;8.82;;;15.20;1.00;;;;;;5012614;28;20454;-82
2022/10/29 07:03:17;;;;;;;10.73;8.70;;;15.10;1.00;;;;;;5015973;28;20670;-81
2022/10/29 07:05:46;;;;;;;9.30;8.33;;;15.30;99.90;;;;;;5016385;28;20485;-83
2022/10/29 07:08:14;;;;;;;17.13;10.20;;;15.30;99.90;;;;;;5017712;28;20549;-82
2022/10/29 07:10:44;;;;;;;7.90;7.17;;;15.20;99.90;;;;;;5011621;28;20459;-83
2022/10/29 07:13:12;;;;;;;10.30;8.63;;;15.30;99.90;;;;;;5012349;28;20458;-83
2022/10/29 07:15:40;;;;;;;9.37;8.57;;;15.50;1.00;;;;;;5013369;28;20452;-81
2022/10/29 07:18:09;;;;;;;9.00;8.40;;;15.70;99.90;;;;;;5013799;28;20488;-83
2022/10/29 07:20:39;;;;;;;10.40;9.60;;;15.80;1.00;;;;;;5014610;28;20482;-81
2022/10/29 07:23:07;;;;;;;10.30;9.40;;;15.90;99.90;;;;;;5017964;28;20519;-83
2022/10/29 07:25:36;;;;;;;9.97;9.00;;;15.90;99.90;;;;;;5033857;28;20463;-83
2022/10/29 07:28:08;;;;;;;8.90;8.27;;;16.00;99.90;;;;;;5012978;28;20480;-84
2022/10/29 07:30:36;;;;;;;12.93;10.27;;;16.10;1.00;;;;;;5015806;28;20484;-83
2022/10/29 07:33:04;;;;;;;15.13;9.57;;;16.30;1.00;;;;;;5013884;28;20463;-82
2022/10/29 07:35:33;;;;;;;10.60;9.43;;;16.40;99.90;;;;;;5019639;28;20876;-84
2022/10/29 07:38:02;;;;;;;10.00;9.30;;;16.50;99.30;;;;;;5013120;28;20501;-84
2022/10/29 07:40:38;;;;;;;10.90;9.90;;;16.80;98.40;;;;;;5013643;28;20699;-85
2022/10/29 07:43:08;;;;;;;11.30;10.30;;;17.00;99.90;;;;;;5016424;28;20454;-84
2022/10/29 07:45:37;;;;;;;11.20;10.00;;;17.20;99.90;;;;;;5018364;28;20483;-84
2022/10/29 07:48:07;;;;;;;13.20;11.67;;;17.40;99.90;;;;;;5012772;28;20748;-84
2022/10/29 07:50:36;;;;;;;11.47;10.57;;;17.60;1.00;;;;;;5013066;28;20460;-86
2022/10/29 07:53:06;;;;;;;13.00;11.87;;;17.80;99.90;;;;;;5016953;28;20991;-84
2022/10/29 07:55:34;;;;;;;12.67;11.50;;;18.10;1.00;;;;;;5023324;28;20442;-85
2022/10/29 07:58:04;;;;;;;12.63;11.27;;;18.30;1.00;;;;;;5024378;28;20509;-84
2022/10/29 08:00:36;;;;;;;12.50;11.53;;;18.50;99.90;;;;;;5021794;28;20473;-84
2022/10/29 08:03:04;;;;;;;12.83;11.80;;;18.90;99.90;;;;;;5020992;28;20511;-84
2022/10/29 08:05:33;;;;;;;12.23;11.20;;;19.20;99.90;;;;;;5017507;28;20820;-85
2022/10/29 08:08:01;;;;;;;12.20;11.20;;;19.50;1.00;;;;;;5015388;28;21000;-85
2022/10/29 08:10:30;;;;;;;11.40;10.60;;;19.80;1.00;;;;;;5021218;28;20986;-83
2022/10/29 08:13:00;;;;;;;16.47;11.50;;;20.20;1.00;;;;;;5018849;28;20536;-85
2022/10/29 08:15:31;;;;;;;12.20;11.30;;;20.50;1.00;;;;;;5017858;28;20445;-85
2022/10/29 08:18:01;;;;;;;12.00;10.27;;;20.90;1.00;;;;;;5018863;28;20457;-85
2022/10/29 08:20:29;;;;;;;11.63;10.30;;;21.50;99.90;;;;;;5023174;28;20468;-85
2022/10/29 08:23:01;;;;;;;10.63;9.83;;;22.30;99.90;;;;;;5017912;28;20965;-84
2022/10/29 08:25:29;;;;;;;9.07;8.47;;;23.00;99.90;;;;;;5016719;28;20531;-85
2022/10/29 08:28:01;;;;;;;11.63;9.30;;;23.60;99.90;;;;;;5017230;28;20484;-85
2022/10/29 08:30:30;;;;;;;10.37;9.30;;;24.10;99.90;;;;;;5020512;28;20456;-85
2022/10/29 08:33:00;;;;;;;18.87;9.97;;;24.00;99.90;;;;;;5019366;28;20486;-85
2022/10/29 08:35:29;;;;;;;15.53;9.83;;;23.70;99.90;;;;;;5019187;28;20506;-84
2022/10/29 08:37:58;;;;;;;11.00;9.93;;;23.30;99.90;;;;;;5019226;28;20498;-85
2022/10/29 08:40:31;;;;;;;10.97;9.87;;;22.90;99.90;;;;;;5014345;28;20467;-86
2022/10/29 08:43:30;;;;;;;9.87;9.17;;;22.50;99.90;;;;;;5018636;28;20456;-84
2022/10/29 08:45:58;;;;;;;10.33;8.83;;;22.40;99.90;;;;;;5019549;28;20467;-84
2022/10/29 08:48:36;;;;;;;8.57;7.80;;;22.40;99.90;;;;;;5022453;28;20570;-84
2022/10/29 08:51:12;;;;;;;9.17;8.30;;;22.00;99.90;;;;;;5016434;28;20444;-84
2022/10/29 08:53:43;;;;;;;8.50;7.73;;;21.80;99.90;;;;;;5020837;28;20496;-84
2022/10/29 08:56:21;;;;;;;10.33;7.70;;;22.00;99.90;;;;;;5013283;28;20964;-85
2022/10/29 08:58:55;;;;;;;13.30;9.10;;;22.10;99.90;;;;;;5018211;28;20993;-85
2022/10/29 09:01:24;;;;;;;8.57;7.63;;;22.40;99.90;;;;;;5014190;28;20473;-84
2022/10/29 09:03:55;;;;;;;8.60;7.83;;;22.70;99.90;;;;;;5020406;28;20479;-84
2022/10/29 09:06:31;;;;;;;11.33;8.10;;;23.70;99.90;;;;;;5018529;28;20495;-84
2022/10/29 09:09:17;;;;;;;8.20;7.47;;;24.30;99.90;;;;;;5019265;28;20445;-83
2022/10/29 09:12:10;;;;;;;8.93;7.00;;;25.60;99.90;;;;;;5016396;28;20507;-84
2022/10/29 09:15:14;;;;;;;7.67;6.93;;;27.00;99.90;;;;;;5017797;28;20453;-85
2022/10/29 09:17:47;;;;;;;8.30;6.57;;;27.90;99.90;;;;;;5018927;28;20477;-84
2022/10/29 09:20:26;;;;;;;7.70;7.00;;;28.10;99.90;;;;;;5019517;28;20531;-84
2022/10/29 09:23:04;;;;;;;8.43;7.60;;;27.60;99.90;;;;;;5014380;28;20487;-84
2022/10/29 09:25:39;;;;;;;9.70;7.40;;;27.60;99.90;;;;;;5014838;28;20457;-84
2022/10/29 09:28:24;;;;;;;7.30;6.73;;;27.70;99.90;;;;;;5013580;28;20491;-84
2022/10/29 09:31:01;;;;;;;6.93;6.30;;;27.60;99.90;;;;;;5014417;28;20948;-85
2022/10/29 09:33:31;;;;;;;6.93;6.33;;;27.90;99.90;;;;;;5019098;28;20822;-84
2022/10/29 09:36:02;;;;;;;7.10;6.50;;;28.20;99.90;;;;;;5019692;28;20510;-85
2022/10/29 09:38:33;;;;;;;8.77;8.00;;;28.30;99.90;;;;;;5017453;28;20528;-84
2022/10/29 09:41:02;;;;;;;8.30;6.80;;;28.80;99.90;;;;;;5018870;28;20440;-84
2022/10/29 09:43:43;;;;;;;8.90;6.53;;;29.40;99.90;;;;;;5010174;28;21181;-85
2022/10/29 09:46:20;;;;;;;11.00;6.70;;;29.90;99.90;;;;;;5017398;28;20457;-84
2022/10/29 09:48:56;;;;;;;7.60;5.93;;;30.30;99.90;;;;;;5017549;28;20492;-84
2022/10/29 09:51:37;;;;;;;7.73;5.73;;;30.80;99.90;;;;;;5025895;28;20452;-84
2022/10/29 09:54:05;;;;;;;8.83;4.80;;;31.50;99.90;;;;;;5015830;28;20464;-84
2022/10/29 09:56:33;;;;;;;7.03;5.40;;;32.20;99.90;;;;;;5017863;28;20580;-83
2022/10/29 09:59:11;;;;;;;10.83;6.50;;;33.10;99.90;;;;;;5019219;28;20456;-84
2022/10/29 10:01:40;;;;;;;6.73;6.13;;;33.80;99.90;;;;;;5020437;28;20490;-85
2022/10/29 10:04:19;;;;;;;5.73;5.30;;;34.20;99.90;;;;;;5018322;28;20536;-83
2022/10/29 10:07:06;;;;;;;7.50;5.33;;;34.70;99.90;;;;;;5020175;28;20482;-84
2022/10/29 10:09:52;;;;;;;6.77;5.10;;;35.00;99.90;;;;;;5020137;28;20508;-85
2022/10/29 10:12:22;;;;;;;8.03;5.37;;;35.90;99.90;;;;;;5021377;28;21263;-85
2022/10/29 10:15:04;;;;;;;8.10;6.30;;;36.80;99.90;;;;;;5023993;28;20450;-84
2022/10/29 10:17:54;;;;;;;7.67;5.70;;;37.60;99.90;;;;;;5020168;28;20463;-85
2022/10/29 10:20:29;;;;;;;5.13;4.47;;;38.10;99.90;;;;;;5027968;28;20471;-84
2022/10/29 10:22:59;;;;;;;7.53;4.83;;;38.00;99.90;;;;;;5020282;28;20480;-84
2022/10/29 10:25:35;;;;;;;7.10;4.97;;;37.00;99.90;;;;;;5020355;28;20447;-84
2022/10/29 10:28:15;;;;;;;8.97;4.60;;;38.00;99.90;;;;;;5018735;28;20480;-84
2022/10/29 10:30:43;;;;;;;8.70;4.60;;;38.80;99.90;;;;;;5023874;28;20457;-84
2022/10/29 10:33:25;;;;;;;4.67;3.93;;;37.70;99.90;;;;;;5018819;28;20552;-84
2022/10/29 10:35:54;;;;;;;4.70;4.27;;;37.70;99.90;;;;;;5021319;28;20440;-84
2022/10/29 10:38:25;;;;;;;8.27;4.73;;;37.40;99.90;;;;;;5022106;28;20529;-84
2022/10/29 10:41:06;;;;;;;8.70;5.07;;;35.10;99.90;;;;;;5019572;28;20455;-86
2022/10/29 10:43:35;;;;;;;7.83;4.60;;;33.70;99.90;;;;;;5021984;28;20469;-84
2022/10/29 10:46:10;;;;;;;5.10;4.13;;;33.60;99.90;;;;;;5018618;28;20888;-84
2022/10/29 10:48:39;;;;;;;5.37;4.33;;;33.60;99.90;;;;;;5019526;28;20547;-84
2022/10/29 10:51:16;;;;;;;7.00;4.90;;;35.40;99.90;;;;;;5020603;28;20449;-84
2022/10/29 10:53:46;;;;;;;4.73;3.60;;;36.80;99.90;;;;;;5018333;28;20456;-84
2022/10/29 10:56:19;;;;;;;8.07;3.80;;;37.10;99.90;;;;;;5019975;28;20591;-84
2022/10/29 10:58:54;;;;;;;4.60;4.20;;;36.50;99.90;;;;;;5019751;28;20631;-84
2022/10/29 11:01:28;;;;;;;7.93;4.60;;;37.40;99.90;;;;;;5017146;28;20743;-84
2022/10/29 11:04:03;;;;;;;5.67;3.90;;;38.00;99.90;;;;;;5017627;28;20999;-87
2022/10/29 11:06:35;;;;;;;5.93;4.20;;;38.10;99.90;;;;;;5013943;28;20495;-84
2022/10/29 11:09:12;;;;;;;8.93;4.27;;;38.90;99.90;;;;;;5016947;28;20461;-84
2022/10/29 11:11:44;;;;;;;5.30;4.50;;;37.30;99.90;;;;;;5019604;28;20460;-84
2022/10/29 11:14:19;;;;;;;6.77;4.13;;;34.70;99.90;;;;;;5015829;28;20469;-85
2022/10/29 11:16:50;;;;;;;9.33;4.07;;;32.60;99.90;;;;;;5018944;28;20483;-84
2022/10/29 11:19:27;;;;;;;7.87;4.60;;;31.20;99.90;;;;;;5019451;28;21012;-84
2022/10/29 11:22:13;;;;;;;5.50;4.10;;;30.70;99.90;;;;;;5016064;28;20933;-85
2022/10/29 11:24:52;;;;;;;7.53;5.07;;;29.90;99.90;;;;;;5018428;28;20449;-84
2022/10/29 11:27:33;;;;;;;6.70;3.83;;;29.20;99.90;;;;;;5018959;28;20499;-83
2022/10/29 11:30:05;;;;;;;5.80;4.40;;;29.10;99.90;;;;;;5018446;28;20586;-85
2022/10/29 11:32:50;;;;;;;4.67;4.00;;;28.70;99.90;;;;;;5017266;28;20457;-84
2022/10/29 11:35:23;;;;;;;6.80;4.17;;;28.70;99.90;;;;;;5017995;28;20573;-84
2022/10/29 11:37:57;;;;;;;5.33;3.63;;;28.70;99.90;;;;;;5019476;28;20831;-85
2022/10/29 11:40:37;;;;;;;6.40;3.80;;;28.50;99.90;;;;;;5016896;28;20460;-83
2022/10/29 11:43:11;;;;;;;6.93;4.30;;;28.40;99.90;;;;;;5020669;28;20574;-83
2022/10/29 11:45:47;;;;;;;4.80;4.10;;;28.20;99.90;;;;;;5015368;28;20538;-83
2022/10/29 11:48:24;;;;;;;5.37;4.20;;;28.20;99.90;;;;;;5019514;28;20482;-83
2022/10/29 11:50:58;;;;;;;4.80;3.47;;;28.40;99.90;;;;;;5017615;28;20476;-84
2022/10/29 11:53:37;;;;;;;5.07;4.10;;;28.50;99.90;;;;;;5019315;28;20448;-84
2022/10/29 11:56:18;;;;;;;4.97;3.40;;;28.50;99.90;;;;;;5020730;28;20513;-84
2022/10/29 11:58:57;;;;;;;5.37;3.90;;;28.50;99.90;;;;;;5019566;28;20448;-83
2022/10/29 12:01:36;;;;;;;5.07;3.90;;;28.20;99.90;;;;;;5017693;28;20465;-84
2022/10/29 12:04:22;;;;;;;9.00;4.30;;;28.30;99.90;;;;;;5014188;28;20484;-84
2022/10/29 12:07:02;;;;;;;8.40;4.27;;;28.20;99.90;;;;;;5017577;28;20484;-84
2022/10/29 12:09:50;;;;;;;6.47;4.33;;;28.20;99.90;;;;;;5014088;28;20952;-85
2022/10/29 12:12:25;;;;;;;7.67;3.90;;;28.20;99.90;;;;;;5017599;28;20465;-83
2022/10/29 12:15:02;;;;;;;9.33;3.67;;;28.10;99.90;;;;;;5014690;28;20456;-83
2022/10/29 12:17:36;;;;;;;4.70;4.30;;;28.10;99.90;;;;;;5018265;28;20864;-83
2022/10/29 12:20:12;;;;;;;7.67;3.70;;;27.90;99.90;;;;;;5014639;28;20991;-84
2022/10/29 12:22:46;;;;;;;10.77;4.80;;;27.90;99.90;;;;;;5018085;28;20466;-84
2022/10/29 12:25:27;;;;;;;6.83;4.17;;;27.90;99.90;;;;;;5017579;28;20962;-84
2022/10/29 12:28:05;;;;;;;7.23;4.13;;;28.00;99.90;;;;;;5016462;28;20481;-84
2022/10/29 12:30:41;;;;;;;5.63;4.07;;;27.70;99.90;;;;;;5016726;28;20951;-84
2022/10/29 12:33:17;;;;;;;7.03;3.70;;;27.80;99.90;;;;;;5026246;28;20460;-85
2022/10/29 12:35:51;;;;;;;6.23;4.40;;;27.80;99.90;;;;;;5020195;28;20950;-86
2022/10/29 12:38:33;;;;;;;8.90;4.00;;;27.70;99.90;;;;;;5015496;28;20467;-84
2022/10/29 12:41:04;;;;;;;5.40;4.00;;;27.70;99.90;;;;;;5016714;28;20872;-86
2022/10/29 12:43:35;;;;;;;4.43;3.70;;;27.60;99.90;;;;;;5018692;28;20483;-84
2022/10/29 12:46:19;;;;;;;6.10;4.03;;;27.40;99.90;;;;;;5021162;28;20455;-84
2022/10/29 12:48:58;;;;;;;4.30;3.90;;;27.20;99.90;;;;;;5017473;28;20465;-84
2022/10/29 12:51:35;;;;;;;5.47;3.93;;;27.30;99.90;;;;;;5018438;28;20452;-84
2022/10/29 12:54:22;;;;;;;4.20;3.80;;;27.40;99.90;;;;;;5017768;28;20805;-84
2022/10/29 12:56:50;;;;;;;4.60;4.00;;;27.40;99.90;;;;;;5015378;28;20483;-84
2022/10/29 12:59:30;;;;;;;8.93;4.30;;;27.30;99.90;;;;;;5017205;28;20453;-83
2022/10/29 13:02:26;;;;;;;6.13;4.30;;;27.20;99.90;;;;;;5017321;28;20457;-84
2022/10/29 13:05:15;;;;;;;5.03;3.90;;;27.10;99.90;;;;;;5020366;28;20951;-84
2022/10/29 13:08:10;;;;;;;4.73;3.50;;;27.10;99.90;;;;;;5017660;28;20452;-84
2022/10/29 13:10:53;;;;;;;5.80;4.27;;;27.30;99.90;;;;;;5017430;28;20975;-84
2022/10/29 13:13:49;;;;;;;6.70;3.57;;;27.20;99.90;;;;;;5020223;28;20544;-84